Time;durP1;ratioP1;P1;durP2;ratioP2;P2;SDS_P1;SDS_P2;PMS_P1;PMS_P2;Temp;Humidity;BMP_temperature;BMP_pressure;BME280_temperature;BME280_humidity;BME280_pressure;Samples;Min_cycle;Max_cycle;Signal;HPM_P1;HPM_P2
2022/03/17 00:02:07;;;;;;;15.90;4.57;;;;;;;;;;5072718;28;20207;-67
2022/03/17 00:04:35;;;;;;;16.27;4.60;;;;;;;;;;5072339;28;20209;-70
2022/03/17 00:07:05;;;;;;;15.48;3.97;;;;;;;;;;5072483;28;20213;-67
2022/03/17 00:09:33;;;;;;;17.88;5.53;;;;;;;;;;5072444;28;20240;-68
2022/03/17 00:12:00;;;;;;;15.75;4.13;;;;;;;;;;5072634;28;20204;-68
2022/03/17 00:14:28;;;;;;;23.73;4.85;;;;;;;;;;5072519;28;20200;-67
2022/03/17 00:16:55;;;;;;;19.83;5.22;;;;;;;;;;5072168;28;20219;-68
2022/03/17 00:19:23;;;;;;;16.63;4.38;;;;;;;;;;5072470;28;20303;-67
2022/03/17 00:21:50;;;;;;;20.35;5.50;;;;;;;;;;5072273;28;20223;-68
2022/03/17 00:24:19;;;;;;;15.70;3.70;;;;;;;;;;5072256;28;20205;-68
2022/03/17 00:26:49;;;;;;;18.85;5.60;;;;;;;;;;5072348;28;20204;-68
2022/03/17 00:29:19;;;;;;;24.67;6.13;;;;;;;;;;5064948;28;20232;-68
2022/03/17 00:31:47;;;;;;;18.90;5.75;;;;;;;;;;5072542;28;20262;-68
2022/03/17 00:34:15;;;;;;;25.25;7.10;;;;;;;;;;5071910;28;20208;-68
2022/03/17 00:36:42;;;;;;;19.15;4.60;;;;;;;;;;5071840;28;20204;-67
2022/03/17 00:39:10;;;;;;;23.35;5.85;;;;;;;;;;5071689;28;20716;-68
2022/03/17 00:41:38;;;;;;;16.70;5.18;;;;;;;;;;5071909;28;20666;-68
2022/03/17 00:44:07;;;;;;;20.88;4.95;;;;;;;;;;5071693;28;20262;-68
2022/03/17 00:46:36;;;;;;;19.50;3.42;;;;;;;;;;5071738;28;20212;-67
2022/03/17 00:49:04;;;;;;;18.23;4.07;;;;;;;;;;5071672;28;20236;-68
2022/03/17 00:51:31;;;;;;;18.23;4.50;;;;;;;;;;5064582;28;20209;-69
2022/03/17 00:53:58;;;;;;;17.85;4.55;;;;;;;;;;5071451;28;20588;-68
2022/03/17 00:56:26;;;;;;;18.45;5.22;;;;;;;;;;5071463;28;20216;-68
2022/03/17 00:58:55;;;;;;;19.60;4.47;;;;;;;;;;5071482;28;20578;-68
2022/03/17 01:01:23;;;;;;;19.90;4.30;;;;;;;;;;5071318;28;20200;-67
2022/03/17 01:03:50;;;;;;;16.55;4.95;;;;;;;;;;5071244;28;20213;-68
2022/03/17 01:06:19;;;;;;;20.15;3.90;;;;;;;;;;5071081;28;20245;-67
2022/03/17 01:08:46;;;;;;;20.48;3.70;;;;;;;;;;5071136;28;20228;-68
2022/03/17 01:11:13;;;;;;;15.00;2.85;;;;;;;;;;5070976;28;20204;-68
2022/03/17 01:13:41;;;;;;;15.70;3.35;;;;;;;;;;5071415;28;20235;-68
2022/03/17 01:16:10;;;;;;;21.17;4.25;;;;;;;;;;5071341;28;20204;-68
2022/03/17 01:18:37;;;;;;;18.05;3.90;;;;;;;;;;5071055;28;20209;-68
2022/03/17 01:21:06;;;;;;;19.10;5.55;;;;;;;;;;5070862;28;20208;-67
2022/03/17 01:23:34;;;;;;;23.27;4.35;;;;;;;;;;5070900;28;20244;-67
2022/03/17 01:26:01;;;;;;;14.77;2.35;;;;;;;;;;5071140;28;20622;-68
2022/03/17 01:28:28;;;;;;;13.25;2.30;;;;;;;;;;5071250;28;20200;-67
2022/03/17 01:30:56;;;;;;;16.48;3.47;;;;;;;;;;5070950;28;20622;-68
2022/03/17 01:33:25;;;;;;;14.60;3.10;;;;;;;;;;5070877;28;20206;-68
2022/03/17 01:35:53;;;;;;;18.88;3.72;;;;;;;;;;5070794;28;20208;-68
2022/03/17 01:38:20;;;;;;;13.60;2.70;;;;;;;;;;5070754;28;20208;-68
2022/03/17 01:40:48;;;;;;;18.17;2.92;;;;;;;;;;5071126;28;20219;-68
2022/03/17 01:43:15;;;;;;;15.13;3.55;;;;;;;;;;5070482;28;20204;-67
2022/03/17 01:45:43;;;;;;;15.65;3.40;;;;;;;;;;5070804;28;20208;-67
2022/03/17 01:48:10;;;;;;;11.27;1.85;;;;;;;;;;5070633;28;20673;-68
2022/03/17 01:50:39;;;;;;;18.55;3.25;;;;;;;;;;5070476;28;20228;-67
2022/03/17 01:53:07;;;;;;;20.58;2.55;;;;;;;;;;5070828;28;20700;-68
2022/03/17 01:55:34;;;;;;;14.70;2.20;;;;;;;;;;5070829;28;20295;-67
2022/03/17 01:58:02;;;;;;;13.77;2.53;;;;;;;;;;5070552;28;20219;-68
2022/03/17 02:00:30;;;;;;;14.98;2.75;;;;;;;;;;5070582;28;20223;-68
2022/03/17 02:02:57;;;;;;;14.85;1.92;;;;;;;;;;5070323;28;20200;-67
2022/03/17 02:05:25;;;;;;;12.30;2.20;;;;;;;;;;5070436;28;20600;-67
2022/03/17 02:07:54;;;;;;;14.55;2.60;;;;;;;;;;5070502;28;20240;-67
2022/03/17 02:10:22;;;;;;;11.85;1.85;;;;;;;;;;5070429;28;20239;-68
2022/03/17 02:15:35;;;;;;;12.13;2.25;;;;;;;;;;5070568;28;20215;-67
2022/03/17 02:18:06;;;;;;;14.80;2.50;;;;;;;;;;5070415;28;20204;-67
2022/03/17 02:20:34;;;;;;;13.18;1.95;;;;;;;;;;5070805;28;20209;-67
2022/03/17 02:26:09;;;;;;;13.57;2.50;;;;;;;;;;5065833;28;20630;-67
2022/03/17 02:28:37;;;;;;;11.85;2.05;;;;;;;;;;5070520;28;20200;-68
2022/03/17 02:31:06;;;;;;;11.77;1.95;;;;;;;;;;5069854;28;20228;-67
2022/03/17 02:33:38;;;;;;;13.32;2.28;;;;;;;;;;5070277;28;20681;-68
2022/03/17 02:36:06;;;;;;;15.75;3.30;;;;;;;;;;5070375;28;20204;-67
2022/03/17 02:38:35;;;;;;;15.68;2.40;;;;;;;;;;5070166;28;20208;-68
2022/03/17 02:41:03;;;;;;;15.30;2.60;;;;;;;;;;5070216;28;20212;-68
2022/03/17 02:43:30;;;;;;;10.75;1.52;;;;;;;;;;5070222;28;20212;-69
2022/03/17 02:45:58;;;;;;;12.80;1.90;;;;;;;;;;5063471;28;20205;-67
2022/03/17 02:48:25;;;;;;;11.32;1.10;;;;;;;;;;5070046;28;20201;-67
2022/03/17 02:50:53;;;;;;;14.95;2.45;;;;;;;;;;5070053;28;20228;-68
2022/03/17 02:53:20;;;;;;;13.65;2.42;;;;;;;;;;5069685;28;20204;-68
2022/03/17 02:55:49;;;;;;;14.90;2.83;;;;;;;;;;5070101;28;20205;-68
2022/03/17 02:58:16;;;;;;;17.77;3.28;;;;;;;;;;5070224;28;20216;-68
2022/03/17 03:00:44;;;;;;;12.82;1.85;;;;;;;;;;5070393;28;20212;-68
2022/03/17 03:03:17;;;;;;;18.08;2.85;;;;;;;;;;5069890;28;20581;-68
2022/03/17 03:05:44;;;;;;;11.85;1.42;;;;;;;;;;5070202;28;20236;-68
2022/03/17 03:08:12;;;;;;;10.60;1.52;;;;;;;;;;5070058;28;20209;-68
2022/03/17 03:10:39;;;;;;;12.38;1.80;;;;;;;;;;5069934;28;20236;-67
2022/03/17 03:13:10;;;;;;;13.43;2.20;;;;;;;;;;5069837;28;20217;-67
2022/03/17 03:15:37;;;;;;;14.68;2.33;;;;;;;;;;5071115;28;20236;-68
2022/03/17 03:18:05;;;;;;;15.15;2.90;;;;;;;;;;5073535;28;20208;-69
2022/03/17 03:20:34;;;;;;;12.23;1.48;;;;;;;;;;5073254;28;20234;-68
2022/03/17 03:23:01;;;;;;;11.52;1.67;;;;;;;;;;5073334;28;20204;-68
2022/03/17 03:25:29;;;;;;;15.50;1.67;;;;;;;;;;5073252;28;20207;-67
2022/03/17 03:27:56;;;;;;;21.02;2.95;;;;;;;;;;5073356;28;20215;-68
2022/03/17 03:30:25;;;;;;;16.52;2.35;;;;;;;;;;5073464;28;20236;-68
2022/03/17 03:32:52;;;;;;;22.75;3.28;;;;;;;;;;5073059;28;20215;-67
2022/03/17 03:38:06;;;;;;;19.15;2.95;;;;;;;;;;5073191;28;20208;-67
2022/03/17 03:40:33;;;;;;;16.77;3.60;;;;;;;;;;5073033;28;20213;-67
2022/03/17 03:43:01;;;;;;;14.25;2.50;;;;;;;;;;5072676;28;20319;-68
2022/03/17 03:45:30;;;;;;;13.00;2.55;;;;;;;;;;5073193;28;20205;-67
2022/03/17 03:47:57;;;;;;;13.35;2.22;;;;;;;;;;5072860;28;20208;-68
2022/03/17 03:50:25;;;;;;;15.25;2.67;;;;;;;;;;5072945;28;20236;-67
2022/03/17 03:52:53;;;;;;;16.85;2.83;;;;;;;;;;5073096;28;20216;-67
2022/03/17 03:55:22;;;;;;;14.05;2.35;;;;;;;;;;5072684;28;20602;-67
2022/03/17 03:57:50;;;;;;;13.18;2.50;;;;;;;;;;5072666;28;20923;-67
2022/03/17 04:03:07;;;;;;;13.63;2.83;;;;;;;;;;5062107;28;20609;-67
2022/03/17 04:05:34;;;;;;;16.98;2.90;;;;;;;;;;5072562;28;20244;-68
2022/03/17 04:08:03;;;;;;;14.68;2.65;;;;;;;;;;5072545;28;20200;-68
2022/03/17 04:10:31;;;;;;;11.75;1.83;;;;;;;;;;5072227;28;20688;-69
2022/03/17 04:12:59;;;;;;;13.32;2.42;;;;;;;;;;5072122;28;20213;-71
2022/03/17 04:15:27;;;;;;;16.85;3.10;;;;;;;;;;5072335;28;20208;-68
2022/03/17 04:17:55;;;;;;;16.30;2.90;;;;;;;;;;5072415;28;20213;-67
2022/03/17 04:20:23;;;;;;;24.27;2.80;;;;;;;;;;5072188;28;20204;-67
2022/03/17 04:22:51;;;;;;;16.90;2.95;;;;;;;;;;5072069;28;20208;-69
2022/03/17 04:25:18;;;;;;;15.32;3.35;;;;;;;;;;5072275;28;20282;-67
2022/03/17 04:27:46;;;;;;;13.90;2.53;;;;;;;;;;5072059;28;20215;-68
2022/03/17 04:30:14;;;;;;;15.20;3.35;;;;;;;;;;5072227;28;20231;-67
2022/03/17 04:32:41;;;;;;;26.25;3.28;;;;;;;;;;5072046;28;20213;-68
2022/03/17 04:35:09;;;;;;;15.05;2.47;;;;;;;;;;5071823;28;20681;-67
2022/03/17 04:37:38;;;;;;;16.20;2.10;;;;;;;;;;5072174;28;20279;-68
2022/03/17 04:40:07;;;;;;;15.13;3.03;;;;;;;;;;5072354;28;20201;-67
2022/03/17 04:42:34;;;;;;;13.13;2.40;;;;;;;;;;5072001;28;20594;-67
2022/03/17 04:45:03;;;;;;;17.92;2.50;;;;;;;;;;5071666;28;20213;-68
2022/03/17 04:47:30;;;;;;;12.20;2.17;;;;;;;;;;5071643;28;20670;-69
2022/03/17 04:49:58;;;;;;;15.52;3.05;;;;;;;;;;5071452;28;20616;-68
2022/03/17 04:55:12;;;;;;;13.13;2.45;;;;;;;;;;5066333;28;20234;-67
2022/03/17 04:57:40;;;;;;;12.88;2.45;;;;;;;;;;5071639;28;20240;-67
2022/03/17 05:00:09;;;;;;;10.52;1.25;;;;;;;;;;5071455;28;20665;-67
2022/03/17 05:02:36;;;;;;;13.48;2.90;;;;;;;;;;5071385;28;20291;-68
2022/03/17 05:05:03;;;;;;;12.30;1.60;;;;;;;;;;5070828;28;20236;-67
2022/03/17 05:07:31;;;;;;;14.88;2.58;;;;;;;;;;5071375;28;20215;-67
2022/03/17 05:09:59;;;;;;;15.80;2.03;;;;;;;;;;5071135;28;20220;-67
2022/03/17 05:12:28;;;;;;;12.93;1.77;;;;;;;;;;5071394;28;20291;-67
2022/03/17 05:14:55;;;;;;;11.05;1.50;;;;;;;;;;5071324;28;20204;-67
2022/03/17 05:17:24;;;;;;;11.63;1.83;;;;;;;;;;5071298;28;20665;-68
2022/03/17 05:19:52;;;;;;;13.88;2.67;;;;;;;;;;5071332;28;20212;-68
2022/03/17 05:22:19;;;;;;;14.90;2.35;;;;;;;;;;5064543;28;20215;-67
2022/03/17 05:24:46;;;;;;;13.82;2.60;;;;;;;;;;5071043;28;20211;-69
2022/03/17 05:27:14;;;;;;;14.70;2.30;;;;;;;;;;5071088;28;20212;-67
2022/03/17 05:29:43;;;;;;;14.80;2.20;;;;;;;;;;5071152;28;20209;-68
2022/03/17 05:32:10;;;;;;;16.98;2.58;;;;;;;;;;5071284;28;20258;-68
2022/03/17 05:34:38;;;;;;;14.38;2.30;;;;;;;;;;5071474;28;20201;-67
2022/03/17 05:37:06;;;;;;;13.20;1.75;;;;;;;;;;5070957;28;20240;-67
2022/03/17 05:39:34;;;;;;;10.73;1.52;;;;;;;;;;5071065;28;20591;-67
2022/03/17 05:42:01;;;;;;;13.25;2.05;;;;;;;;;;5070825;28;20220;-68
2022/03/17 05:44:29;;;;;;;13.32;2.35;;;;;;;;;;5070739;28;20662;-68
2022/03/17 05:46:58;;;;;;;11.02;1.45;;;;;;;;;;5071015;28;20209;-68
2022/03/17 05:49:25;;;;;;;17.58;2.78;;;;;;;;;;5070873;28;20265;-67
2022/03/17 05:51:53;;;;;;;12.05;2.22;;;;;;;;;;5070565;28;20697;-68
2022/03/17 05:54:20;;;;;;;11.70;1.70;;;;;;;;;;5070567;28;20700;-68
2022/03/17 05:56:48;;;;;;;28.30;1.80;;;;;;;;;;5070868;28;20299;-68
2022/03/17 05:59:15;;;;;;;12.55;1.90;;;;;;;;;;5070513;28;20227;-68
2022/03/17 06:01:43;;;;;;;15.00;1.70;;;;;;;;;;5070724;28;20215;-68
2022/03/17 06:04:11;;;;;;;12.73;2.33;;;;;;;;;;5064156;28;20204;-67
2022/03/17 06:06:39;;;;;;;12.38;2.42;;;;;;;;;;5071094;28;20239;-67
2022/03/17 06:09:08;;;;;;;14.93;4.47;;;;;;;;;;5070523;28;20243;-68
2022/03/17 06:11:36;;;;;;;13.63;2.40;;;;;;;;;;5071222;28;20232;-68
2022/03/17 06:14:03;;;;;;;17.73;2.90;;;;;;;;;;5070981;28;20208;-68
2022/03/17 06:16:31;;;;;;;12.02;2.05;;;;;;;;;;5070900;28;20645;-68
2022/03/17 06:18:59;;;;;;;14.00;2.17;;;;;;;;;;5070909;28;20617;-71
2022/03/17 06:21:28;;;;;;;13.75;1.90;;;;;;;;;;5070661;28;20243;-68
2022/03/17 06:23:55;;;;;;;14.43;2.47;;;;;;;;;;5071553;28;20205;-68
2022/03/17 06:26:23;;;;;;;13.40;1.55;;;;;;;;;;5071055;28;20209;-69
2022/03/17 06:28:50;;;;;;;15.93;2.88;;;;;;;;;;5070975;28;20227;-68
2022/03/17 06:31:18;;;;;;;12.65;2.15;;;;;;;;;;5069979;28;20240;-68
2022/03/17 06:33:45;;;;;;;13.27;3.25;;;;;;;;;;5070253;28;20209;-67
2022/03/17 06:36:13;;;;;;;14.15;1.98;;;;;;;;;;5070035;28;20209;-68
2022/03/17 06:38:42;;;;;;;17.95;3.65;;;;;;;;;;5070393;28;20334;-68
2022/03/17 06:41:09;;;;;;;12.48;2.40;;;;;;;;;;5070091;28;20208;-67
2022/03/17 06:43:37;;;;;;;15.48;3.63;;;;;;;;;;5070356;28;20212;-67
2022/03/17 06:46:05;;;;;;;15.00;2.88;;;;;;;;;;5070222;28;20201;-67
2022/03/17 06:48:32;;;;;;;18.42;4.35;;;;;;;;;;5070008;28;20209;-68
2022/03/17 06:51:00;;;;;;;12.15;2.13;;;;;;;;;;5071746;28;20727;-69
2022/03/17 06:53:27;;;;;;;15.07;3.35;;;;;;;;;;5073898;28;20200;-67
2022/03/17 06:55:56;;;;;;;16.15;3.53;;;;;;;;;;5074112;28;20208;-67
2022/03/17 06:58:23;;;;;;;15.68;2.97;;;;;;;;;;5073747;28;20207;-67
2022/03/17 07:00:51;;;;;;;13.68;3.20;;;;;;;;;;5073795;28;20212;-68
2022/03/17 07:03:19;;;;;;;13.50;3.35;;;;;;;;;;5073663;28;20299;-67
2022/03/17 07:05:46;;;;;;;17.67;3.55;;;;;;;;;;5073684;28;20251;-68
2022/03/17 07:08:13;;;;;;;14.20;2.13;;;;;;;;;;5066926;28;20208;-67
2022/03/17 07:10:41;;;;;;;13.88;2.65;;;;;;;;;;5073352;28;20315;-68
2022/03/17 07:13:10;;;;;;;14.88;3.63;;;;;;;;;;5073384;28;20200;-67
2022/03/17 07:15:37;;;;;;;13.50;3.25;;;;;;;;;;5073499;28;20223;-69
2022/03/17 07:18:06;;;;;;;13.95;2.53;;;;;;;;;;5073402;28;20713;-67
2022/03/17 07:20:34;;;;;;;13.70;2.53;;;;;;;;;;5073581;28;20201;-68
2022/03/17 07:23:01;;;;;;;16.48;3.47;;;;;;;;;;5073287;28;20311;-68
2022/03/17 07:25:29;;;;;;;12.95;2.80;;;;;;;;;;5073433;28;20239;-67
2022/03/17 07:27:57;;;;;;;14.48;3.20;;;;;;;;;;5073437;28;20204;-67
2022/03/17 07:30:26;;;;;;;16.23;4.45;;;;;;;;;;5073148;28;20261;-68
2022/03/17 07:32:55;;;;;;;14.88;3.05;;;;;;;;;;5073030;28;20229;-67
2022/03/17 07:35:25;;;;;;;13.82;2.38;;;;;;;;;;5073059;28;20295;-67
2022/03/17 07:37:53;;;;;;;14.35;3.28;;;;;;;;;;5073412;28;20793;-68
2022/03/17 07:40:20;;;;;;;17.98;2.45;;;;;;;;;;5073082;28;20212;-68
2022/03/17 07:42:48;;;;;;;11.90;2.05;;;;;;;;;;5072920;28;20219;-68
2022/03/17 07:45:15;;;;;;;13.30;3.15;;;;;;;;;;5072890;28;20196;-67
2022/03/17 07:47:47;;;;;;;13.55;2.30;;;;;;;;;;5072829;28;20208;-68
2022/03/17 07:50:15;;;;;;;12.82;2.35;;;;;;;;;;5073105;28;20296;-68
2022/03/17 07:52:43;;;;;;;12.60;2.60;;;;;;;;;;5072898;28;20232;-68
2022/03/17 07:55:11;;;;;;;14.45;4.03;;;;;;;;;;5072651;28;20280;-68
2022/03/17 07:57:39;;;;;;;12.88;2.60;;;;;;;;;;5072693;28;20212;-67
2022/03/17 08:00:08;;;;;;;14.52;3.17;;;;;;;;;;5072871;28;20277;-68
2022/03/17 08:02:36;;;;;;;17.92;2.65;;;;;;;;;;5072337;28;20216;-68
2022/03/17 08:05:05;;;;;;;13.75;3.10;;;;;;;;;;5072329;28;20240;-68
2022/03/17 08:07:33;;;;;;;14.07;2.55;;;;;;;;;;5072869;28;20254;-68
2022/03/17 08:10:03;;;;;;;16.25;2.92;;;;;;;;;;5072408;28;20688;-68
2022/03/17 08:12:31;;;;;;;14.63;2.97;;;;;;;;;;5072580;28;20225;-68
2022/03/17 08:14:59;;;;;;;13.90;2.78;;;;;;;;;;5072505;28;20581;-71
2022/03/17 08:17:27;;;;;;;20.40;2.00;;;;;;;;;;5065969;28;20228;-68
2022/03/17 08:19:55;;;;;;;14.68;2.63;;;;;;;;;;5072319;28;20299;-68
2022/03/17 08:22:24;;;;;;;17.88;2.95;;;;;;;;;;5072130;28;20239;-68
2022/03/17 08:24:52;;;;;;;14.60;2.33;;;;;;;;;;5072424;28;20211;-69
2022/03/17 08:27:20;;;;;;;16.90;1.70;;;;;;;;;;5072152;28;20220;-68
2022/03/17 08:29:48;;;;;;;14.55;2.38;;;;;;;;;;5072281;28;20270;-69
2022/03/17 08:32:15;;;;;;;13.65;1.73;;;;;;;;;;5071988;28;20228;-68
2022/03/17 08:34:43;;;;;;;16.13;4.00;;;;;;;;;;5071891;28;20212;-68
2022/03/17 08:37:10;;;;;;;12.40;1.98;;;;;;;;;;5071694;28;20217;-69
2022/03/17 08:39:39;;;;;;;12.40;1.67;;;;;;;;;;5065169;28;20688;-68
2022/03/17 08:42:07;;;;;;;14.63;2.35;;;;;;;;;;5071741;28;20228;-70
2022/03/17 08:44:35;;;;;;;12.23;1.63;;;;;;;;;;5071774;28;20584;-69
2022/03/17 08:49:48;;;;;;;13.55;2.00;;;;;;;;;;5071776;28;20212;-69
2022/03/17 08:52:15;;;;;;;12.57;2.22;;;;;;;;;;5071424;28;20230;-69
2022/03/17 08:54:44;;;;;;;16.38;1.90;;;;;;;;;;5071488;28;20211;-69
2022/03/17 08:57:12;;;;;;;12.75;1.55;;;;;;;;;;5071140;28;20687;-69
2022/03/17 08:59:41;;;;;;;12.93;2.10;;;;;;;;;;5071689;28;20212;-68
2022/03/17 09:02:10;;;;;;;11.10;1.08;;;;;;;;;;5071892;28;20668;-69
2022/03/17 09:04:38;;;;;;;14.68;1.70;;;;;;;;;;5071527;28;20206;-70
2022/03/17 09:07:06;;;;;;;14.75;2.00;;;;;;;;;;5071320;28;20202;-68
2022/03/17 09:09:34;;;;;;;13.57;1.95;;;;;;;;;;5064596;28;20230;-68
2022/03/17 09:12:05;;;;;;;17.55;2.08;;;;;;;;;;5071103;28;20229;-69
2022/03/17 09:14:32;;;;;;;11.90;1.73;;;;;;;;;;5070687;28;20239;-69
2022/03/17 09:17:01;;;;;;;13.27;1.40;;;;;;;;;;5071141;28;20210;-70
2022/03/17 09:19:29;;;;;;;11.95;1.60;;;;;;;;;;5071363;28;20682;-69
2022/03/17 09:21:56;;;;;;;12.00;1.60;;;;;;;;;;5070974;28;20230;-68
2022/03/17 09:24:25;;;;;;;19.73;2.78;;;;;;;;;;5071030;28;20209;-69
2022/03/17 09:26:52;;;;;;;14.68;1.92;;;;;;;;;;5071019;28;20226;-69
2022/03/17 09:29:21;;;;;;;13.30;2.22;;;;;;;;;;5070715;28;20206;-69
2022/03/17 09:31:49;;;;;;;14.43;2.50;;;;;;;;;;5070902;28;20238;-69
2022/03/17 09:34:17;;;;;;;19.25;2.60;;;;;;;;;;5071075;28;20286;-68
2022/03/17 09:36:45;;;;;;;13.30;1.65;;;;;;;;;;5070848;28;20210;-68
2022/03/17 09:41:57;;;;;;;16.15;2.15;;;;;;;;;;5070830;28;20238;-68
2022/03/17 09:44:26;;;;;;;11.85;1.75;;;;;;;;;;5070831;28;20214;-69
2022/03/17 09:46:55;;;;;;;17.55;2.42;;;;;;;;;;5070651;28;20231;-69
2022/03/17 09:49:23;;;;;;;13.05;1.88;;;;;;;;;;5070566;28;20267;-69
2022/03/17 09:51:54;;;;;;;11.70;1.33;;;;;;;;;;5070565;28;20927;-68
2022/03/17 09:54:22;;;;;;;13.45;1.85;;;;;;;;;;5070784;28;20215;-69
2022/03/17 09:56:49;;;;;;;11.50;1.42;;;;;;;;;;5070651;28;20209;-69
2022/03/17 09:59:16;;;;;;;13.52;2.20;;;;;;;;;;5070373;28;20203;-68
2022/03/17 10:01:45;;;;;;;13.60;2.35;;;;;;;;;;5070652;28;20221;-69
2022/03/17 10:04:13;;;;;;;12.38;1.92;;;;;;;;;;5063681;28;20277;-69
2022/03/17 10:06:41;;;;;;;14.90;2.17;;;;;;;;;;5070709;28;20242;-69
2022/03/17 10:09:09;;;;;;;16.38;2.03;;;;;;;;;;5070584;28;20588;-68
2022/03/17 10:11:39;;;;;;;11.80;1.73;;;;;;;;;;5070552;28;20224;-69
2022/03/17 10:14:07;;;;;;;13.05;1.92;;;;;;;;;;5070773;28;20217;-69
2022/03/17 10:16:34;;;;;;;16.45;2.00;;;;;;;;;;5070517;28;20214;-70
2022/03/17 10:19:04;;;;;;;12.15;1.92;;;;;;;;;;5070490;28;20219;-69
2022/03/17 10:21:32;;;;;;;13.10;2.15;;;;;;;;;;5070317;28;20209;-69
2022/03/17 10:24:02;;;;;;;14.57;1.75;;;;;;;;;;5070778;28;20235;-69
2022/03/17 10:26:37;;;;;;;14.85;1.88;;;;;;;;;;5068273;28;20605;-69
2022/03/17 10:29:05;;;;;;;12.15;1.75;;;;;;;;;;5068134;28;20206;-68
2022/03/17 10:31:32;;;;;;;13.38;1.80;;;;;;;;;;5074285;28;20212;-69
2022/03/17 10:34:01;;;;;;;13.63;2.17;;;;;;;;;;5074534;28;20211;-68
2022/03/17 10:36:32;;;;;;;16.33;1.90;;;;;;;;;;5074190;28;20592;-68
2022/03/17 10:38:59;;;;;;;13.27;2.38;;;;;;;;;;5074451;28;20206;-69
2022/03/17 10:41:27;;;;;;;15.07;2.10;;;;;;;;;;5074236;28;20216;-69
2022/03/17 10:44:01;;;;;;;12.68;1.70;;;;;;;;;;5073883;28;20230;-69
2022/03/17 10:46:31;;;;;;;15.18;2.25;;;;;;;;;;5073965;28;20210;-68
2022/03/17 10:48:59;;;;;;;13.68;2.20;;;;;;;;;;5074232;28;20238;-69
2022/03/17 10:51:38;;;;;;;12.20;1.75;;;;;;;;;;5073995;28;20208;-69
2022/03/17 10:54:06;;;;;;;13.52;2.10;;;;;;;;;;5073959;28;20214;-69
2022/03/17 10:56:36;;;;;;;14.25;2.38;;;;;;;;;;5073740;28;20205;-69
2022/03/17 10:59:05;;;;;;;22.83;2.55;;;;;;;;;;5073593;28;20822;-69
2022/03/17 11:01:42;;;;;;;15.95;1.95;;;;;;;;;;5073809;28;20252;-69
2022/03/17 11:04:10;;;;;;;13.00;1.88;;;;;;;;;;5074054;28;20219;-70
2022/03/17 11:06:40;;;;;;;16.65;2.70;;;;;;;;;;5073449;28;20238;-69
2022/03/17 11:09:09;;;;;;;13.27;1.98;;;;;;;;;;5073024;28;20281;-69
2022/03/17 11:11:37;;;;;;;13.80;1.90;;;;;;;;;;5073679;28;20207;-69
2022/03/17 11:14:06;;;;;;;14.43;2.03;;;;;;;;;;5073273;28;20293;-69
2022/03/17 11:16:37;;;;;;;13.10;2.10;;;;;;;;;;5073521;28;20233;-70
2022/03/17 11:19:06;;;;;;;11.55;1.85;;;;;;;;;;5073236;28;20206;-69
2022/03/17 11:21:34;;;;;;;19.52;2.60;;;;;;;;;;5073246;28;20221;-69
2022/03/17 11:24:05;;;;;;;14.48;2.65;;;;;;;;;;5073524;28;20602;-70
2022/03/17 11:26:35;;;;;;;13.38;2.00;;;;;;;;;;5073404;28;20628;-69
2022/03/17 11:29:05;;;;;;;13.45;2.00;;;;;;;;;;5073043;28;20213;-70
2022/03/17 11:31:47;;;;;;;13.48;2.55;;;;;;;;;;5073229;28;20217;-69
2022/03/17 11:34:15;;;;;;;13.77;2.00;;;;;;;;;;5073109;28;20232;-68
2022/03/17 11:37:04;;;;;;;19.77;3.03;;;;;;;;;;5072148;28;20733;-70
2022/03/17 11:39:48;;;;;;;13.07;2.10;;;;;;;;;;5072891;28;20228;-70
2022/03/17 11:42:31;;;;;;;13.35;1.55;;;;;;;;;;5072846;28;20672;-69
2022/03/17 11:45:03;;;;;;;15.90;2.50;;;;;;;;;;5071130;28;20292;-70
2022/03/17 11:47:36;;;;;;;13.88;2.17;;;;;;;;;;5073100;28;20587;-69
2022/03/17 11:50:18;;;;;;;14.15;2.03;;;;;;;;;;5073234;28;20209;-69
2022/03/17 11:52:51;;;;;;;14.55;2.15;;;;;;;;;;5066295;28;20325;-69
2022/03/17 11:55:37;;;;;;;12.07;1.42;;;;;;;;;;5072929;28;20211;-70
2022/03/17 11:58:24;;;;;;;12.93;2.05;;;;;;;;;;5072952;28;20216;-69
2022/03/17 12:00:53;;;;;;;11.65;1.60;;;;;;;;;;5072688;28;20288;-70
2022/03/17 12:03:28;;;;;;;12.85;2.15;;;;;;;;;;5072317;28;20209;-70
2022/03/17 12:06:06;;;;;;;14.05;2.17;;;;;;;;;;5072391;28;20751;-69
2022/03/17 12:08:36;;;;;;;14.52;2.30;;;;;;;;;;5072631;28;20223;-69
2022/03/17 12:11:06;;;;;;;18.73;2.10;;;;;;;;;;5072207;28;20206;-70
2022/03/17 12:13:36;;;;;;;12.30;1.40;;;;;;;;;;5072289;28;20233;-69
2022/03/17 12:16:05;;;;;;;14.02;2.53;;;;;;;;;;5072653;28;20224;-69
2022/03/17 12:19:00;;;;;;;21.15;2.70;;;;;;;;;;5072500;28;20213;-70
2022/03/17 12:21:42;;;;;;;13.27;2.35;;;;;;;;;;5072604;28;20222;-70
2022/03/17 12:24:10;;;;;;;15.43;3.58;;;;;;;;;;5071981;28;20681;-70
2022/03/17 12:26:38;;;;;;;13.95;2.55;;;;;;;;;;5072219;28;20711;-70
2022/03/17 12:29:07;;;;;;;15.38;3.00;;;;;;;;;;5071891;28;20441;-69
2022/03/17 12:31:35;;;;;;;13.55;2.50;;;;;;;;;;5071975;28;20725;-70
2022/03/17 12:34:02;;;;;;;16.95;2.72;;;;;;;;;;5071918;28;20234;-69
2022/03/17 12:36:30;;;;;;;21.75;2.63;;;;;;;;;;5071843;28;20285;-69
2022/03/17 12:38:57;;;;;;;13.88;1.95;;;;;;;;;;5071862;28;20223;-69
2022/03/17 12:41:28;;;;;;;11.90;1.77;;;;;;;;;;5064954;28;20203;-69
2022/03/17 12:44:00;;;;;;;13.57;2.78;;;;;;;;;;5071980;28;20219;-68
2022/03/17 12:46:28;;;;;;;15.23;1.77;;;;;;;;;;5072078;28;20221;-69
2022/03/17 12:49:07;;;;;;;14.63;2.40;;;;;;;;;;5070423;28;20210;-69
2022/03/17 12:51:34;;;;;;;14.30;2.40;;;;;;;;;;5071852;28;20268;-69
2022/03/17 12:54:04;;;;;;;14.38;1.65;;;;;;;;;;5071399;28;20776;-69
2022/03/17 12:56:32;;;;;;;14.80;2.08;;;;;;;;;;5071429;28;20208;-71
2022/03/17 12:59:07;;;;;;;13.18;3.08;;;;;;;;;;5071364;28;20217;-70
2022/03/17 13:01:35;;;;;;;13.65;2.30;;;;;;;;;;5071452;28;20213;-70
2022/03/17 13:04:05;;;;;;;13.07;2.60;;;;;;;;;;5071531;28;20223;-70
2022/03/17 13:09:18;;;;;;;13.57;2.22;;;;;;;;;;5071201;28;20243;-71
2022/03/17 13:14:34;;;;;;;19.50;2.38;;;;;;;;;;5071284;28;20237;-70
2022/03/17 13:17:03;;;;;;;14.10;2.42;;;;;;;;;;5070948;28;20671;-70
2022/03/17 13:19:31;;;;;;;13.32;2.20;;;;;;;;;;5071117;28;20216;-69
2022/03/17 13:22:05;;;;;;;13.02;2.10;;;;;;;;;;5071099;28;20197;-70
2022/03/17 13:24:33;;;;;;;14.57;2.15;;;;;;;;;;5070921;28;20212;-70
2022/03/17 13:27:00;;;;;;;14.00;2.03;;;;;;;;;;5070682;28;20201;-70
2022/03/17 13:29:28;;;;;;;14.23;2.17;;;;;;;;;;5070952;28;20669;-70
2022/03/17 13:31:57;;;;;;;13.10;2.22;;;;;;;;;;5070981;28;20205;-70
2022/03/17 13:34:28;;;;;;;12.82;2.15;;;;;;;;;;5064233;28;20586;-70
2022/03/17 13:36:57;;;;;;;13.20;1.88;;;;;;;;;;5070754;28;20244;-70
2022/03/17 13:39:34;;;;;;;12.68;2.13;;;;;;;;;;5071206;28;20216;-70
2022/03/17 13:42:05;;;;;;;14.98;3.15;;;;;;;;;;5070988;28;20204;-69
2022/03/17 13:44:45;;;;;;;16.05;3.38;;;;;;;;;;5070906;28;20221;-71
2022/03/17 13:47:16;;;;;;;12.60;1.92;;;;;;;;;;5070516;28;20208;-70
2022/03/17 13:50:07;;;;;;;13.43;2.20;;;;;;;;;;5070688;28;20205;-70
2022/03/17 13:52:35;;;;;;;13.25;2.47;;;;;;;;;;5070605;28;20743;-70
2022/03/17 13:55:03;;;;;;;14.40;2.45;;;;;;;;;;5070359;28;20216;-71
2022/03/17 13:57:30;;;;;;;12.90;2.38;;;;;;;;;;5070799;28;20216;-70
2022/03/17 13:59:58;;;;;;;16.30;2.22;;;;;;;;;;5070088;28;20210;-70
2022/03/17 14:02:27;;;;;;;16.02;3.03;;;;;;;;;;5070710;28;20221;-70
2022/03/17 14:04:54;;;;;;;13.23;2.40;;;;;;;;;;5070724;28;20265;-70
2022/03/17 14:07:22;;;;;;;15.07;1.95;;;;;;;;;;5070193;28;20201;-70
2022/03/17 14:09:50;;;;;;;15.95;2.65;;;;;;;;;;5070429;28;20221;-70
2022/03/17 14:12:18;;;;;;;18.10;3.35;;;;;;;;;;5070441;28;20211;-70
2022/03/17 14:14:46;;;;;;;15.57;2.67;;;;;;;;;;5070645;28;20319;-70
2022/03/17 14:17:14;;;;;;;12.63;1.90;;;;;;;;;;5070386;28;20262;-70
2022/03/17 14:19:42;;;;;;;13.60;2.80;;;;;;;;;;5070422;28;20211;-70
2022/03/17 14:24:55;;;;;;;11.75;1.45;;;;;;;;;;5070407;28;20707;-70
2022/03/17 14:27:22;;;;;;;15.77;1.85;;;;;;;;;;5063437;28;20294;-71
2022/03/17 14:29:50;;;;;;;12.77;2.45;;;;;;;;;;5070375;28;20204;-70
2022/03/17 14:32:17;;;;;;;12.43;1.80;;;;;;;;;;5070160;28;20218;-71
2022/03/17 14:34:47;;;;;;;11.98;1.70;;;;;;;;;;5070106;28;20233;-70
2022/03/17 14:37:15;;;;;;;15.40;2.90;;;;;;;;;;5069901;28;20205;-70
2022/03/17 14:39:43;;;;;;;16.98;2.88;;;;;;;;;;5070171;28;20657;-70
2022/03/17 14:42:13;;;;;;;13.88;2.10;;;;;;;;;;5070616;28;20589;-69
2022/03/17 14:44:41;;;;;;;20.67;3.40;;;;;;;;;;5070311;28;20270;-70
2022/03/17 14:47:09;;;;;;;15.40;3.05;;;;;;;;;;5070041;28;20215;-70
2022/03/17 14:49:36;;;;;;;14.32;2.80;;;;;;;;;;5070203;28;20208;-70
2022/03/17 14:52:05;;;;;;;17.88;3.30;;;;;;;;;;5069949;28;20213;-69
2022/03/17 14:54:32;;;;;;;14.57;2.47;;;;;;;;;;5070140;28;20626;-71
2022/03/17 14:57:00;;;;;;;15.15;3.25;;;;;;;;;;5069931;28;20209;-70
2022/03/17 14:59:29;;;;;;;14.32;2.88;;;;;;;;;;5069985;28;20209;-69
2022/03/17 15:01:57;;;;;;;15.73;3.47;;;;;;;;;;5069928;28;20220;-70
2022/03/17 15:04:24;;;;;;;14.07;2.35;;;;;;;;;;5069879;28;20208;-70
2022/03/17 15:06:52;;;;;;;12.15;1.75;;;;;;;;;;5070176;28;20264;-71
2022/03/17 15:09:21;;;;;;;16.95;3.60;;;;;;;;;;5069585;28;20714;-70